sensor_id;sensor_type;location;lat;lon;timestamp;P1;durP1;ratioP1;P2;durP2;ratioP2
8871;SDS011;4472;52.092;9.820;2023-05-29T00:02:21;13.03;;;6.10;;
8871;SDS011;4472;52.092;9.820;2023-05-29T00:05:09;7.50;;;6.23;;
8871;SDS011;4472;52.092;9.820;2023-05-29T00:07:58;11.43;;;6.47;;
8871;SDS011;4472;52.092;9.820;2023-05-29T00:10:45;10.87;;;6.50;;
8871;SDS011;4472;52.092;9.820;2023-05-29T00:13:32;7.40;;;5.83;;
8871;SDS011;4472;52.092;9.820;2023-05-29T00:16:20;9.17;;;6.27;;
8871;SDS011;4472;52.092;9.820;2023-05-29T00:19:08;9.77;;;6.10;;
8871;SDS011;4472;52.092;9.820;2023-05-29T00:21:56;6.93;;;5.97;;
8871;SDS011;4472;52.092;9.820;2023-05-29T00:24:44;8.67;;;5.73;;
8871;SDS011;4472;52.092;9.820;2023-05-29T00:27:31;7.43;;;5.57;;
8871;SDS011;4472;52.092;9.820;2023-05-29T00:30:19;7.20;;;5.27;;
8871;SDS011;4472;52.092;9.820;2023-05-29T00:33:06;10.00;;;5.47;;
8871;SDS011;4472;52.092;9.820;2023-05-29T00:35:53;10.80;;;5.70;;
8871;SDS011;4472;52.092;9.820;2023-05-29T00:38:40;9.73;;;5.50;;
8871;SDS011;4472;52.092;9.820;2023-05-29T00:41:29;10.17;;;5.53;;
8871;SDS011;4472;52.092;9.820;2023-05-29T00:44:16;9.77;;;5.33;;
8871;SDS011;4472;52.092;9.820;2023-05-29T00:47:04;8.00;;;4.80;;
8871;SDS011;4472;52.092;9.820;2023-05-29T00:49:52;9.50;;;5.33;;
8871;SDS011;4472;52.092;9.820;2023-05-29T00:52:41;8.73;;;4.77;;
8871;SDS011;4472;52.092;9.820;2023-05-29T00:55:30;11.13;;;5.70;;
8871;SDS011;4472;52.092;9.820;2023-05-29T00:58:19;9.40;;;5.47;;
8871;SDS011;4472;52.092;9.820;2023-05-29T01:01:07;12.93;;;5.07;;
8871;SDS011;4472;52.092;9.820;2023-05-29T01:03:55;9.20;;;5.53;;
8871;SDS011;4472;52.092;9.820;2023-05-29T01:06:44;9.50;;;5.20;;
8871;SDS011;4472;52.092;9.820;2023-05-29T01:09:31;9.60;;;5.10;;
8871;SDS011;4472;52.092;9.820;2023-05-29T01:12:23;12.10;;;5.43;;
8871;SDS011;4472;52.092;9.820;2023-05-29T01:15:24;10.23;;;5.07;;
8871;SDS011;4472;52.092;9.820;2023-05-29T01:18:19;10.93;;;4.87;;
8871;SDS011;4472;52.092;9.820;2023-05-29T01:21:14;9.20;;;5.23;;
8871;SDS011;4472;52.092;9.820;2023-05-29T01:24:13;13.40;;;4.67;;
8871;SDS011;4472;52.092;9.820;2023-05-29T01:27:08;8.93;;;4.80;;
8871;SDS011;4472;52.092;9.820;2023-05-29T01:29:56;8.67;;;5.00;;
8871;SDS011;4472;52.092;9.820;2023-05-29T01:32:45;8.67;;;4.77;;
8871;SDS011;4472;52.092;9.820;2023-05-29T01:35:33;12.37;;;5.20;;
8871;SDS011;4472;52.092;9.820;2023-05-29T01:38:21;10.07;;;5.60;;
8871;SDS011;4472;52.092;9.820;2023-05-29T01:41:08;9.60;;;5.20;;
8871;SDS011;4472;52.092;9.820;2023-05-29T01:43:57;9.93;;;4.73;;
8871;SDS011;4472;52.092;9.820;2023-05-29T01:46:45;9.33;;;4.50;;
8871;SDS011;4472;52.092;9.820;2023-05-29T01:49:33;9.03;;;5.23;;
8871;SDS011;4472;52.092;9.820;2023-05-29T01:52:22;12.50;;;4.70;;
8871;SDS011;4472;52.092;9.820;2023-05-29T01:55:10;12.60;;;5.27;;
8871;SDS011;4472;52.092;9.820;2023-05-29T01:57:57;12.23;;;4.90;;
8871;SDS011;4472;52.092;9.820;2023-05-29T02:00:47;9.20;;;4.90;;
8871;SDS011;4472;52.092;9.820;2023-05-29T02:03:34;11.47;;;4.90;;
8871;SDS011;4472;52.092;9.820;2023-05-29T02:06:21;12.33;;;5.00;;
8871;SDS011;4472;52.092;9.820;2023-05-29T02:09:09;9.70;;;4.60;;
8871;SDS011;4472;52.092;9.820;2023-05-29T02:11:56;7.67;;;4.57;;
8871;SDS011;4472;52.092;9.820;2023-05-29T02:14:43;11.50;;;5.40;;
8871;SDS011;4472;52.092;9.820;2023-05-29T02:17:31;11.53;;;4.67;;
8871;SDS011;4472;52.092;9.820;2023-05-29T02:20:19;9.67;;;4.50;;
8871;SDS011;4472;52.092;9.820;2023-05-29T02:23:07;11.00;;;4.53;;
8871;SDS011;4472;52.092;9.820;2023-05-29T02:25:55;14.10;;;4.43;;
8871;SDS011;4472;52.092;9.820;2023-05-29T02:28:42;11.43;;;4.10;;
8871;SDS011;4472;52.092;9.820;2023-05-29T02:31:29;11.43;;;4.77;;
8871;SDS011;4472;52.092;9.820;2023-05-29T02:34:17;11.73;;;4.90;;
8871;SDS011;4472;52.092;9.820;2023-05-29T02:37:08;11.40;;;4.90;;
8871;SDS011;4472;52.092;9.820;2023-05-29T02:39:55;8.90;;;4.80;;
8871;SDS011;4472;52.092;9.820;2023-05-29T02:42:42;7.60;;;4.50;;
8871;SDS011;4472;52.092;9.820;2023-05-29T02:45:29;10.20;;;4.53;;
8871;SDS011;4472;52.092;9.820;2023-05-29T02:48:16;13.13;;;4.80;;
8871;SDS011;4472;52.092;9.820;2023-05-29T02:51:05;8.90;;;4.47;;
8871;SDS011;4472;52.092;9.820;2023-05-29T02:53:52;9.80;;;4.80;;
8871;SDS011;4472;52.092;9.820;2023-05-29T02:56:39;9.90;;;4.43;;
8871;SDS011;4472;52.092;9.820;2023-05-29T02:59:26;10.30;;;4.43;;
8871;SDS011;4472;52.092;9.820;2023-05-29T03:02:14;14.53;;;5.10;;
8871;SDS011;4472;52.092;9.820;2023-05-29T03:05:01;17.43;;;4.70;;
8871;SDS011;4472;52.092;9.820;2023-05-29T03:07:50;10.70;;;4.13;;
8871;SDS011;4472;52.092;9.820;2023-05-29T03:10:37;10.60;;;4.70;;
8871;SDS011;4472;52.092;9.820;2023-05-29T03:13:25;10.30;;;4.37;;
8871;SDS011;4472;52.092;9.820;2023-05-29T03:16:12;9.63;;;4.70;;
8871;SDS011;4472;52.092;9.820;2023-05-29T03:18:59;9.80;;;4.07;;
8871;SDS011;4472;52.092;9.820;2023-05-29T03:21:46;9.77;;;4.37;;
8871;SDS011;4472;52.092;9.820;2023-05-29T03:24:35;13.60;;;4.47;;
8871;SDS011;4472;52.092;9.820;2023-05-29T03:27:23;10.67;;;5.10;;
8871;SDS011;4472;52.092;9.820;2023-05-29T03:30:10;12.50;;;4.67;;
8871;SDS011;4472;52.092;9.820;2023-05-29T03:32:58;14.70;;;4.63;;
8871;SDS011;4472;52.092;9.820;2023-05-29T03:35:48;14.47;;;4.47;;
8871;SDS011;4472;52.092;9.820;2023-05-29T03:38:35;9.43;;;4.20;;
8871;SDS011;4472;52.092;9.820;2023-05-29T03:41:24;12.03;;;4.67;;
8871;SDS011;4472;52.092;9.820;2023-05-29T03:44:11;10.60;;;4.53;;
8871;SDS011;4472;52.092;9.820;2023-05-29T03:46:58;8.70;;;4.10;;
8871;SDS011;4472;52.092;9.820;2023-05-29T03:49:46;13.67;;;5.33;;
8871;SDS011;4472;52.092;9.820;2023-05-29T03:52:33;11.27;;;4.37;;
8871;SDS011;4472;52.092;9.820;2023-05-29T03:55:20;15.03;;;4.93;;
8871;SDS011;4472;52.092;9.820;2023-05-29T03:58:09;10.57;;;4.30;;
8871;SDS011;4472;52.092;9.820;2023-05-29T04:00:57;13.10;;;4.03;;
8871;SDS011;4472;52.092;9.820;2023-05-29T04:03:44;10.77;;;4.70;;
8871;SDS011;4472;52.092;9.820;2023-05-29T04:06:31;12.83;;;4.30;;
8871;SDS011;4472;52.092;9.820;2023-05-29T04:09:19;16.93;;;4.73;;
8871;SDS011;4472;52.092;9.820;2023-05-29T04:12:06;11.17;;;4.70;;
8871;SDS011;4472;52.092;9.820;2023-05-29T04:14:55;10.80;;;4.67;;
8871;SDS011;4472;52.092;9.820;2023-05-29T04:17:42;9.77;;;4.10;;
8871;SDS011;4472;52.092;9.820;2023-05-29T04:20:30;10.77;;;4.03;;
8871;SDS011;4472;52.092;9.820;2023-05-29T04:23:17;16.43;;;4.77;;
8871;SDS011;4472;52.092;9.820;2023-05-29T04:26:04;8.43;;;3.90;;
8871;SDS011;4472;52.092;9.820;2023-05-29T04:28:52;11.87;;;4.23;;
8871;SDS011;4472;52.092;9.820;2023-05-29T04:31:43;9.27;;;3.70;;
8871;SDS011;4472;52.092;9.820;2023-05-29T04:34:32;11.87;;;4.23;;
8871;SDS011;4472;52.092;9.820;2023-05-29T04:37:19;13.50;;;4.23;;
8871;SDS011;4472;52.092;9.820;2023-05-29T04:40:14;10.43;;;4.33;;
8871;SDS011;4472;52.092;9.820;2023-05-29T04:43:02;13.80;;;4.80;;
8871;SDS011;4472;52.092;9.820;2023-05-29T04:45:51;13.70;;;4.20;;
8871;SDS011;4472;52.092;9.820;2023-05-29T04:48:39;11.70;;;4.37;;
8871;SDS011;4472;52.092;9.820;2023-05-29T04:51:26;9.87;;;4.30;;
8871;SDS011;4472;52.092;9.820;2023-05-29T04:54:15;14.73;;;4.63;;
8871;SDS011;4472;52.092;9.820;2023-05-29T04:57:02;9.87;;;4.07;;
8871;SDS011;4472;52.092;9.820;2023-05-29T04:59:50;9.23;;;4.13;;
8871;SDS011;4472;52.092;9.820;2023-05-29T05:02:37;17.30;;;4.13;;
8871;SDS011;4472;52.092;9.820;2023-05-29T05:05:26;11.77;;;4.30;;
8871;SDS011;4472;52.092;9.820;2023-05-29T05:08:13;13.73;;;4.57;;
8871;SDS011;4472;52.092;9.820;2023-05-29T05:11:00;12.47;;;4.10;;
8871;SDS011;4472;52.092;9.820;2023-05-29T05:13:48;11.63;;;3.77;;
8871;SDS011;4472;52.092;9.820;2023-05-29T05:16:35;12.53;;;4.43;;
8871;SDS011;4472;52.092;9.820;2023-05-29T05:19:22;12.33;;;4.13;;
8871;SDS011;4472;52.092;9.820;2023-05-29T05:22:11;11.07;;;4.07;;
8871;SDS011;4472;52.092;9.820;2023-05-29T05:24:58;13.17;;;3.80;;
8871;SDS011;4472;52.092;9.820;2023-05-29T05:27:45;14.37;;;4.23;;
8871;SDS011;4472;52.092;9.820;2023-05-29T05:30:33;13.60;;;4.63;;
8871;SDS011;4472;52.092;9.820;2023-05-29T05:33:20;11.80;;;4.23;;
8871;SDS011;4472;52.092;9.820;2023-05-29T05:36:07;12.70;;;4.77;;
8871;SDS011;4472;52.092;9.820;2023-05-29T05:38:55;10.27;;;3.73;;
8871;SDS011;4472;52.092;9.820;2023-05-29T05:41:43;9.43;;;3.50;;
8871;SDS011;4472;52.092;9.820;2023-05-29T05:44:30;12.70;;;3.60;;
8871;SDS011;4472;52.092;9.820;2023-05-29T05:47:17;11.07;;;4.27;;
8871;SDS011;4472;52.092;9.820;2023-05-29T05:50:04;16.67;;;4.57;;
8871;SDS011;4472;52.092;9.820;2023-05-29T05:52:53;16.83;;;4.50;;
8871;SDS011;4472;52.092;9.820;2023-05-29T05:55:41;10.20;;;3.87;;
8871;SDS011;4472;52.092;9.820;2023-05-29T05:58:28;11.70;;;3.90;;
8871;SDS011;4472;52.092;9.820;2023-05-29T06:01:16;15.77;;;4.40;;
8871;SDS011;4472;52.092;9.820;2023-05-29T06:04:04;14.40;;;4.30;;
8871;SDS011;4472;52.092;9.820;2023-05-29T06:06:51;13.97;;;4.33;;
8871;SDS011;4472;52.092;9.820;2023-05-29T06:09:38;11.57;;;3.70;;
8871;SDS011;4472;52.092;9.820;2023-05-29T06:12:26;10.57;;;4.20;;
8871;SDS011;4472;52.092;9.820;2023-05-29T06:15:14;11.60;;;4.43;;
8871;SDS011;4472;52.092;9.820;2023-05-29T06:18:01;12.23;;;3.83;;
8871;SDS011;4472;52.092;9.820;2023-05-29T06:20:50;12.50;;;4.00;;
8871;SDS011;4472;52.092;9.820;2023-05-29T06:23:37;11.40;;;4.20;;
8871;SDS011;4472;52.092;9.820;2023-05-29T06:26:26;12.30;;;4.77;;
8871;SDS011;4472;52.092;9.820;2023-05-29T06:29:15;11.37;;;3.70;;
8871;SDS011;4472;52.092;9.820;2023-05-29T06:32:02;12.30;;;4.37;;
8871;SDS011;4472;52.092;9.820;2023-05-29T06:34:50;8.10;;;3.57;;
8871;SDS011;4472;52.092;9.820;2023-05-29T06:37:37;11.30;;;4.20;;
8871;SDS011;4472;52.092;9.820;2023-05-29T06:40:24;12.53;;;4.60;;
8871;SDS011;4472;52.092;9.820;2023-05-29T06:43:11;9.57;;;4.47;;
8871;SDS011;4472;52.092;9.820;2023-05-29T06:46:00;12.77;;;4.20;;
8871;SDS011;4472;52.092;9.820;2023-05-29T06:48:47;13.13;;;4.80;;
8871;SDS011;4472;52.092;9.820;2023-05-29T06:51:34;11.57;;;4.20;;
8871;SDS011;4472;52.092;9.820;2023-05-29T06:54:21;10.03;;;3.57;;
8871;SDS011;4472;52.092;9.820;2023-05-29T06:57:08;13.13;;;3.97;;
8871;SDS011;4472;52.092;9.820;2023-05-29T06:59:55;12.13;;;4.00;;
8871;SDS011;4472;52.092;9.820;2023-05-29T07:02:44;11.50;;;3.83;;
8871;SDS011;4472;52.092;9.820;2023-05-29T07:05:31;9.13;;;3.63;;
8871;SDS011;4472;52.092;9.820;2023-05-29T07:08:18;13.87;;;3.80;;
8871;SDS011;4472;52.092;9.820;2023-05-29T07:11:05;11.53;;;4.17;;
8871;SDS011;4472;52.092;9.820;2023-05-29T07:13:53;13.23;;;4.40;;
8871;SDS011;4472;52.092;9.820;2023-05-29T07:16:40;10.90;;;4.90;;
8871;SDS011;4472;52.092;9.820;2023-05-29T07:19:29;11.90;;;4.40;;
8871;SDS011;4472;52.092;9.820;2023-05-29T07:22:17;15.13;;;3.93;;
8871;SDS011;4472;52.092;9.820;2023-05-29T07:25:05;13.83;;;4.37;;
8871;SDS011;4472;52.092;9.820;2023-05-29T07:27:52;11.13;;;4.00;;
8871;SDS011;4472;52.092;9.820;2023-05-29T07:30:39;17.00;;;4.90;;
8871;SDS011;4472;52.092;9.820;2023-05-29T07:33:27;16.67;;;4.60;;
8871;SDS011;4472;52.092;9.820;2023-05-29T07:36:16;12.27;;;4.43;;
8871;SDS011;4472;52.092;9.820;2023-05-29T07:39:03;14.23;;;4.00;;
8871;SDS011;4472;52.092;9.820;2023-05-29T07:41:53;13.00;;;4.27;;
8871;SDS011;4472;52.092;9.820;2023-05-29T07:44:40;12.53;;;3.53;;
8871;SDS011;4472;52.092;9.820;2023-05-29T07:47:28;13.27;;;4.07;;
8871;SDS011;4472;52.092;9.820;2023-05-29T07:50:15;13.63;;;3.87;;
8871;SDS011;4472;52.092;9.820;2023-05-29T07:53:03;14.73;;;4.07;;
8871;SDS011;4472;52.092;9.820;2023-05-29T07:55:51;11.93;;;4.50;;
8871;SDS011;4472;52.092;9.820;2023-05-29T07:58:38;9.67;;;3.20;;
8871;SDS011;4472;52.092;9.820;2023-05-29T08:01:26;14.87;;;4.57;;
8871;SDS011;4472;52.092;9.820;2023-05-29T08:04:13;10.67;;;4.00;;
8871;SDS011;4472;52.092;9.820;2023-05-29T08:07:01;12.10;;;4.20;;
8871;SDS011;4472;52.092;9.820;2023-05-29T08:09:50;14.93;;;4.20;;
8871;SDS011;4472;52.092;9.820;2023-05-29T08:12:37;10.37;;;4.20;;
8871;SDS011;4472;52.092;9.820;2023-05-29T08:15:24;9.80;;;3.87;;
8871;SDS011;4472;52.092;9.820;2023-05-29T08:18:12;14.17;;;3.93;;
8871;SDS011;4472;52.092;9.820;2023-05-29T08:21:05;10.80;;;3.80;;
8871;SDS011;4472;52.092;9.820;2023-05-29T08:23:52;12.73;;;4.23;;
8871;SDS011;4472;52.092;9.820;2023-05-29T08:26:41;9.00;;;3.53;;
8871;SDS011;4472;52.092;9.820;2023-05-29T08:29:28;11.43;;;3.83;;
8871;SDS011;4472;52.092;9.820;2023-05-29T08:32:16;14.53;;;3.83;;
8871;SDS011;4472;52.092;9.820;2023-05-29T08:35:03;12.17;;;3.73;;
8871;SDS011;4472;52.092;9.820;2023-05-29T08:37:51;12.57;;;4.20;;
8871;SDS011;4472;52.092;9.820;2023-05-29T08:40:38;9.57;;;3.93;;
8871;SDS011;4472;52.092;9.820;2023-05-29T08:43:28;12.77;;;3.73;;
8871;SDS011;4472;52.092;9.820;2023-05-29T08:46:17;6.47;;;3.97;;
8871;SDS011;4472;52.092;9.820;2023-05-29T08:49:05;9.03;;;3.47;;
8871;SDS011;4472;52.092;9.820;2023-05-29T08:51:56;14.00;;;4.20;;
8871;SDS011;4472;52.092;9.820;2023-05-29T08:54:48;6.90;;;3.97;;
8871;SDS011;4472;52.092;9.820;2023-05-29T08:57:36;10.13;;;3.30;;
8871;SDS011;4472;52.092;9.820;2023-05-29T09:00:25;11.03;;;3.57;;
8871;SDS011;4472;52.092;9.820;2023-05-29T09:03:14;9.63;;;3.20;;
8871;SDS011;4472;52.092;9.820;2023-05-29T09:06:02;9.93;;;3.27;;
8871;SDS011;4472;52.092;9.820;2023-05-29T09:08:52;8.80;;;3.40;;
8871;SDS011;4472;52.092;9.820;2023-05-29T09:11:39;9.37;;;3.40;;
8871;SDS011;4472;52.092;9.820;2023-05-29T09:14:33;10.20;;;4.00;;
8871;SDS011;4472;52.092;9.820;2023-05-29T09:17:29;9.30;;;3.50;;
8871;SDS011;4472;52.092;9.820;2023-05-29T09:20:18;6.13;;;2.93;;
8871;SDS011;4472;52.092;9.820;2023-05-29T09:23:09;8.03;;;3.60;;
8871;SDS011;4472;52.092;9.820;2023-05-29T09:25:56;11.67;;;3.33;;
8871;SDS011;4472;52.092;9.820;2023-05-29T09:28:45;10.17;;;3.57;;
8871;SDS011;4472;52.092;9.820;2023-05-29T09:31:33;11.70;;;3.60;;
8871;SDS011;4472;52.092;9.820;2023-05-29T09:34:33;8.87;;;3.27;;
8871;SDS011;4472;52.092;9.820;2023-05-29T09:37:20;9.83;;;3.50;;
8871;SDS011;4472;52.092;9.820;2023-05-29T09:40:08;12.03;;;3.60;;
8871;SDS011;4472;52.092;9.820;2023-05-29T09:43:01;10.70;;;3.87;;
8871;SDS011;4472;52.092;9.820;2023-05-29T09:45:52;9.60;;;3.67;;
8871;SDS011;4472;52.092;9.820;2023-05-29T09:48:40;10.27;;;3.60;;
8871;SDS011;4472;52.092;9.820;2023-05-29T09:51:30;10.40;;;3.47;;
8871;SDS011;4472;52.092;9.820;2023-05-29T09:54:17;10.97;;;4.00;;
8871;SDS011;4472;52.092;9.820;2023-05-29T09:57:05;16.17;;;4.30;;
8871;SDS011;4472;52.092;9.820;2023-05-29T09:59:54;10.43;;;3.90;;
8871;SDS011;4472;52.092;9.820;2023-05-29T10:02:41;10.37;;;3.70;;
8871;SDS011;4472;52.092;9.820;2023-05-29T10:05:29;10.93;;;3.67;;
8871;SDS011;4472;52.092;9.820;2023-05-29T10:08:19;13.23;;;4.37;;
8871;SDS011;4472;52.092;9.820;2023-05-29T10:11:06;13.67;;;3.87;;
8871;SDS011;4472;52.092;9.820;2023-05-29T10:14:00;10.40;;;3.87;;
8871;SDS011;4472;52.092;9.820;2023-05-29T10:16:50;14.93;;;3.83;;
8871;SDS011;4472;52.092;9.820;2023-05-29T10:19:39;9.20;;;3.27;;
8871;SDS011;4472;52.092;9.820;2023-05-29T10:22:27;9.63;;;3.80;;
8871;SDS011;4472;52.092;9.820;2023-05-29T10:25:19;12.73;;;3.80;;
8871;SDS011;4472;52.092;9.820;2023-05-29T10:28:07;7.57;;;3.37;;
8871;SDS011;4472;52.092;9.820;2023-05-29T10:30:55;11.03;;;3.50;;
8871;SDS011;4472;52.092;9.820;2023-05-29T10:33:50;9.83;;;3.67;;
8871;SDS011;4472;52.092;9.820;2023-05-29T10:36:48;12.63;;;3.93;;
8871;SDS011;4472;52.092;9.820;2023-05-29T10:39:41;8.77;;;3.60;;
8871;SDS011;4472;52.092;9.820;2023-05-29T10:42:45;8.73;;;4.00;;
8871;SDS011;4472;52.092;9.820;2023-05-29T10:45:50;6.83;;;3.10;;
8871;SDS011;4472;52.092;9.820;2023-05-29T10:48:41;8.63;;;2.97;;
8871;SDS011;4472;52.092;9.820;2023-05-29T10:51:29;11.30;;;4.03;;
8871;SDS011;4472;52.092;9.820;2023-05-29T10:54:18;8.10;;;3.33;;
8871;SDS011;4472;52.092;9.820;2023-05-29T10:57:08;8.00;;;3.10;;
8871;SDS011;4472;52.092;9.820;2023-05-29T11:00:01;12.40;;;4.00;;
8871;SDS011;4472;52.092;9.820;2023-05-29T11:03:01;9.77;;;3.40;;
8871;SDS011;4472;52.092;9.820;2023-05-29T11:05:58;8.17;;;2.87;;
8871;SDS011;4472;52.092;9.820;2023-05-29T11:08:47;7.00;;;3.50;;
8871;SDS011;4472;52.092;9.820;2023-05-29T11:11:39;7.30;;;2.87;;
8871;SDS011;4472;52.092;9.820;2023-05-29T11:14:28;8.60;;;3.03;;
8871;SDS011;4472;52.092;9.820;2023-05-29T11:17:29;9.17;;;2.90;;
8871;SDS011;4472;52.092;9.820;2023-05-29T11:20:35;10.00;;;3.90;;
8871;SDS011;4472;52.092;9.820;2023-05-29T11:23:23;10.23;;;3.43;;
8871;SDS011;4472;52.092;9.820;2023-05-29T11:26:16;7.97;;;3.27;;
8871;SDS011;4472;52.092;9.820;2023-05-29T11:29:07;7.13;;;2.80;;
8871;SDS011;4472;52.092;9.820;2023-05-29T11:31:58;8.90;;;3.43;;
8871;SDS011;4472;52.092;9.820;2023-05-29T11:34:49;7.67;;;2.97;;
8871;SDS011;4472;52.092;9.820;2023-05-29T11:37:38;7.43;;;3.43;;
8871;SDS011;4472;52.092;9.820;2023-05-29T11:40:27;7.53;;;3.27;;
8871;SDS011;4472;52.092;9.820;2023-05-29T11:43:14;9.67;;;3.37;;
8871;SDS011;4472;52.092;9.820;2023-05-29T11:46:02;7.73;;;3.33;;
8871;SDS011;4472;52.092;9.820;2023-05-29T11:48:59;8.63;;;3.60;;
8871;SDS011;4472;52.092;9.820;2023-05-29T11:51:48;5.40;;;3.20;;
8871;SDS011;4472;52.092;9.820;2023-05-29T11:54:36;7.40;;;3.07;;
8871;SDS011;4472;52.092;9.820;2023-05-29T11:57:23;8.30;;;3.60;;
8871;SDS011;4472;52.092;9.820;2023-05-29T12:00:13;8.47;;;3.00;;
8871;SDS011;4472;52.092;9.820;2023-05-29T12:03:08;9.17;;;3.30;;
8871;SDS011;4472;52.092;9.820;2023-05-29T12:05:55;8.07;;;2.90;;
8871;SDS011;4472;52.092;9.820;2023-05-29T12:08:44;7.03;;;2.97;;
8871;SDS011;4472;52.092;9.820;2023-05-29T12:11:31;7.30;;;3.03;;
8871;SDS011;4472;52.092;9.820;2023-05-29T12:14:19;4.97;;;2.70;;
8871;SDS011;4472;52.092;9.820;2023-05-29T12:17:06;7.40;;;2.97;;
8871;SDS011;4472;52.092;9.820;2023-05-29T12:19:54;5.03;;;2.80;;
8871;SDS011;4472;52.092;9.820;2023-05-29T12:22:42;5.57;;;2.50;;
8871;SDS011;4472;52.092;9.820;2023-05-29T12:25:33;8.70;;;3.20;;
8871;SDS011;4472;52.092;9.820;2023-05-29T12:28:22;9.03;;;3.03;;
8871;SDS011;4472;52.092;9.820;2023-05-29T12:31:09;6.20;;;3.20;;
8871;SDS011;4472;52.092;9.820;2023-05-29T12:34:00;8.53;;;3.10;;
8871;SDS011;4472;52.092;9.820;2023-05-29T12:36:48;7.53;;;3.07;;
8871;SDS011;4472;52.092;9.820;2023-05-29T12:39:35;8.87;;;3.30;;
8871;SDS011;4472;52.092;9.820;2023-05-29T12:42:24;7.73;;;3.00;;
8871;SDS011;4472;52.092;9.820;2023-05-29T12:45:11;8.13;;;3.00;;
8871;SDS011;4472;52.092;9.820;2023-05-29T12:47:58;6.80;;;3.47;;
8871;SDS011;4472;52.092;9.820;2023-05-29T12:50:48;6.63;;;2.73;;
8871;SDS011;4472;52.092;9.820;2023-05-29T12:53:35;5.60;;;3.07;;
8871;SDS011;4472;52.092;9.820;2023-05-29T12:56:23;8.37;;;3.83;;
8871;SDS011;4472;52.092;9.820;2023-05-29T12:59:13;6.13;;;3.13;;
8871;SDS011;4472;52.092;9.820;2023-05-29T13:02:00;9.83;;;2.90;;
8871;SDS011;4472;52.092;9.820;2023-05-29T13:04:48;7.13;;;3.33;;
8871;SDS011;4472;52.092;9.820;2023-05-29T13:07:35;8.27;;;3.80;;
8871;SDS011;4472;52.092;9.820;2023-05-29T13:10:23;7.63;;;3.30;;
8871;SDS011;4472;52.092;9.820;2023-05-29T13:13:11;4.83;;;3.20;;
8871;SDS011;4472;52.092;9.820;2023-05-29T13:15:59;7.13;;;3.30;;
8871;SDS011;4472;52.092;9.820;2023-05-29T13:18:47;5.60;;;3.13;;
8871;SDS011;4472;52.092;9.820;2023-05-29T13:21:34;5.37;;;2.90;;
8871;SDS011;4472;52.092;9.820;2023-05-29T13:24:21;7.73;;;3.30;;
8871;SDS011;4472;52.092;9.820;2023-05-29T13:27:08;7.57;;;3.07;;
8871;SDS011;4472;52.092;9.820;2023-05-29T13:29:59;6.10;;;3.03;;
8871;SDS011;4472;52.092;9.820;2023-05-29T13:32:47;7.33;;;2.93;;
8871;SDS011;4472;52.092;9.820;2023-05-29T13:35:34;7.23;;;2.90;;
8871;SDS011;4472;52.092;9.820;2023-05-29T13:38:22;6.90;;;3.30;;
8871;SDS011;4472;52.092;9.820;2023-05-29T13:41:09;6.13;;;3.20;;
8871;SDS011;4472;52.092;9.820;2023-05-29T13:43:56;7.73;;;3.33;;
8871;SDS011;4472;52.092;9.820;2023-05-29T13:46:43;6.23;;;2.90;;
8871;SDS011;4472;52.092;9.820;2023-05-29T13:49:31;5.70;;;3.07;;
8871;SDS011;4472;52.092;9.820;2023-05-29T13:52:19;6.77;;;3.40;;
8871;SDS011;4472;52.092;9.820;2023-05-29T13:55:06;4.40;;;2.67;;
8871;SDS011;4472;52.092;9.820;2023-05-29T13:57:54;6.43;;;3.30;;
8871;SDS011;4472;52.092;9.820;2023-05-29T14:00:43;6.37;;;3.57;;
8871;SDS011;4472;52.092;9.820;2023-05-29T14:03:31;7.87;;;3.23;;
8871;SDS011;4472;52.092;9.820;2023-05-29T14:06:19;4.73;;;3.20;;
8871;SDS011;4472;52.092;9.820;2023-05-29T14:09:07;8.47;;;3.60;;
8871;SDS011;4472;52.092;9.820;2023-05-29T14:11:55;7.43;;;3.27;;
8871;SDS011;4472;52.092;9.820;2023-05-29T14:14:45;5.17;;;3.00;;
8871;SDS011;4472;52.092;9.820;2023-05-29T14:17:32;7.17;;;3.30;;
8871;SDS011;4472;52.092;9.820;2023-05-29T14:20:19;5.60;;;3.10;;
8871;SDS011;4472;52.092;9.820;2023-05-29T14:23:08;7.53;;;3.30;;
8871;SDS011;4472;52.092;9.820;2023-05-29T14:25:59;7.30;;;3.60;;
8871;SDS011;4472;52.092;9.820;2023-05-29T14:28:46;4.97;;;3.10;;
8871;SDS011;4472;52.092;9.820;2023-05-29T14:31:33;6.87;;;3.20;;
8871;SDS011;4472;52.092;9.820;2023-05-29T14:34:20;8.70;;;3.37;;
8871;SDS011;4472;52.092;9.820;2023-05-29T14:37:07;5.90;;;3.17;;
8871;SDS011;4472;52.092;9.820;2023-05-29T14:39:56;7.07;;;3.00;;
8871;SDS011;4472;52.092;9.820;2023-05-29T14:42:43;6.07;;;3.13;;
8871;SDS011;4472;52.092;9.820;2023-05-29T14:45:30;5.53;;;3.13;;
8871;SDS011;4472;52.092;9.820;2023-05-29T14:48:18;8.27;;;3.10;;
8871;SDS011;4472;52.092;9.820;2023-05-29T14:51:05;6.70;;;2.97;;
8871;SDS011;4472;52.092;9.820;2023-05-29T14:53:52;6.33;;;2.73;;
8871;SDS011;4472;52.092;9.820;2023-05-29T14:56:41;6.03;;;3.00;;
8871;SDS011;4472;52.092;9.820;2023-05-29T14:59:28;8.70;;;3.37;;
8871;SDS011;4472;52.092;9.820;2023-05-29T15:02:15;7.97;;;3.20;;
8871;SDS011;4472;52.092;9.820;2023-05-29T15:05:03;9.53;;;3.10;;
8871;SDS011;4472;52.092;9.820;2023-05-29T15:07:50;5.63;;;2.83;;
8871;SDS011;4472;52.092;9.820;2023-05-29T15:10:39;5.57;;;3.20;;
8871;SDS011;4472;52.092;9.820;2023-05-29T15:13:28;9.03;;;3.20;;
8871;SDS011;4472;52.092;9.820;2023-05-29T15:16:15;5.23;;;2.57;;
8871;SDS011;4472;52.092;9.820;2023-05-29T15:19:02;8.80;;;3.00;;
8871;SDS011;4472;52.092;9.820;2023-05-29T15:21:50;7.13;;;3.03;;
8871;SDS011;4472;52.092;9.820;2023-05-29T15:24:37;6.47;;;2.60;;
8871;SDS011;4472;52.092;9.820;2023-05-29T15:27:25;8.60;;;2.97;;
8871;SDS011;4472;52.092;9.820;2023-05-29T15:30:18;5.77;;;2.97;;
8871;SDS011;4472;52.092;9.820;2023-05-29T15:33:06;5.83;;;2.67;;
8871;SDS011;4472;52.092;9.820;2023-05-29T15:35:55;7.23;;;3.33;;
8871;SDS011;4472;52.092;9.820;2023-05-29T15:38:42;7.43;;;3.43;;
8871;SDS011;4472;52.092;9.820;2023-05-29T15:41:29;4.97;;;3.10;;
8871;SDS011;4472;52.092;9.820;2023-05-29T15:44:16;7.63;;;2.70;;
8871;SDS011;4472;52.092;9.820;2023-05-29T15:47:05;4.93;;;2.90;;
8871;SDS011;4472;52.092;9.820;2023-05-29T15:49:53;6.43;;;3.20;;
8871;SDS011;4472;52.092;9.820;2023-05-29T15:52:40;7.37;;;2.50;;
8871;SDS011;4472;52.092;9.820;2023-05-29T15:55:27;6.80;;;2.60;;
8871;SDS011;4472;52.092;9.820;2023-05-29T15:58:14;5.07;;;3.20;;
8871;SDS011;4472;52.092;9.820;2023-05-29T16:01:01;4.27;;;3.00;;
8871;SDS011;4472;52.092;9.820;2023-05-29T16:03:50;5.90;;;2.97;;
8871;SDS011;4472;52.092;9.820;2023-05-29T16:06:37;4.57;;;2.50;;
8871;SDS011;4472;52.092;9.820;2023-05-29T16:09:24;10.00;;;2.90;;
8871;SDS011;4472;52.092;9.820;2023-05-29T16:12:13;5.03;;;3.00;;
8871;SDS011;4472;52.092;9.820;2023-05-29T16:15:00;5.47;;;2.80;;
8871;SDS011;4472;52.092;9.820;2023-05-29T16:17:49;5.90;;;2.70;;
8871;SDS011;4472;52.092;9.820;2023-05-29T16:20:37;6.50;;;3.40;;
8871;SDS011;4472;52.092;9.820;2023-05-29T16:23:24;7.57;;;2.90;;
8871;SDS011;4472;52.092;9.820;2023-05-29T16:26:12;5.80;;;2.90;;
8871;SDS011;4472;52.092;9.820;2023-05-29T16:28:59;8.07;;;3.27;;
8871;SDS011;4472;52.092;9.820;2023-05-29T16:31:47;4.30;;;2.57;;
8871;SDS011;4472;52.092;9.820;2023-05-29T16:34:34;7.47;;;3.20;;
8871;SDS011;4472;52.092;9.820;2023-05-29T16:37:23;8.27;;;2.97;;
8871;SDS011;4472;52.092;9.820;2023-05-29T16:40:10;6.83;;;3.10;;
8871;SDS011;4472;52.092;9.820;2023-05-29T16:42:57;6.23;;;3.17;;
8871;SDS011;4472;52.092;9.820;2023-05-29T16:45:45;7.87;;;3.40;;
8871;SDS011;4472;52.092;9.820;2023-05-29T16:48:32;6.03;;;2.70;;
8871;SDS011;4472;52.092;9.820;2023-05-29T16:51:19;6.67;;;3.13;;
8871;SDS011;4472;52.092;9.820;2023-05-29T16:54:07;5.53;;;2.80;;
8871;SDS011;4472;52.092;9.820;2023-05-29T16:56:55;8.60;;;2.83;;
8871;SDS011;4472;52.092;9.820;2023-05-29T16:59:42;7.93;;;3.50;;
8871;SDS011;4472;52.092;9.820;2023-05-29T17:02:29;7.53;;;3.00;;
8871;SDS011;4472;52.092;9.820;2023-05-29T17:05:16;7.70;;;3.27;;
8871;SDS011;4472;52.092;9.820;2023-05-29T17:08:03;6.63;;;2.87;;
8871;SDS011;4472;52.092;9.820;2023-05-29T17:10:55;8.37;;;3.00;;
8871;SDS011;4472;52.092;9.820;2023-05-29T17:13:43;9.27;;;4.53;;
8871;SDS011;4472;52.092;9.820;2023-05-29T17:16:30;8.40;;;4.90;;
8871;SDS011;4472;52.092;9.820;2023-05-29T17:19:17;11.53;;;7.00;;
8871;SDS011;4472;52.092;9.820;2023-05-29T17:22:05;8.87;;;4.70;;